sensor_id;sensor_type;location;lat;lon;timestamp;P1;durP1;ratioP1;P2;durP2;ratioP2
15331;SDS011;7766;51.534;6.722;2023-01-29T00:00:18;37.37;;;20.03;;
15331;SDS011;7766;51.534;6.722;2023-01-29T00:01:19;36.30;;;19.38;;
15331;SDS011;7766;51.534;6.722;2023-01-29T00:02:20;39.97;;;20.67;;
15331;SDS011;7766;51.534;6.722;2023-01-29T00:03:21;37.33;;;21.73;;
15331;SDS011;7766;51.534;6.722;2023-01-29T00:04:21;37.07;;;21.37;;
15331;SDS011;7766;51.534;6.722;2023-01-29T00:05:22;38.40;;;20.63;;
15331;SDS011;7766;51.534;6.722;2023-01-29T00:06:23;37.55;;;20.38;;
15331;SDS011;7766;51.534;6.722;2023-01-29T00:07:24;41.27;;;20.67;;
15331;SDS011;7766;51.534;6.722;2023-01-29T00:08:25;38.93;;;19.90;;
15331;SDS011;7766;51.534;6.722;2023-01-29T00:09:27;41.92;;;22.42;;
15331;SDS011;7766;51.534;6.722;2023-01-29T00:10:28;38.77;;;21.80;;
15331;SDS011;7766;51.534;6.722;2023-01-29T00:11:29;40.22;;;20.67;;
15331;SDS011;7766;51.534;6.722;2023-01-29T00:12:30;39.17;;;19.90;;
15331;SDS011;7766;51.534;6.722;2023-01-29T00:13:31;36.63;;;19.43;;
15331;SDS011;7766;51.534;6.722;2023-01-29T00:14:33;38.42;;;20.85;;
15331;SDS011;7766;51.534;6.722;2023-01-29T00:15:34;37.70;;;20.77;;
15331;SDS011;7766;51.534;6.722;2023-01-29T00:16:35;42.00;;;22.67;;
15331;SDS011;7766;51.534;6.722;2023-01-29T00:17:36;44.70;;;23.23;;
15331;SDS011;7766;51.534;6.722;2023-01-29T00:18:37;43.30;;;22.47;;
15331;SDS011;7766;51.534;6.722;2023-01-29T00:19:38;39.90;;;22.23;;
15331;SDS011;7766;51.534;6.722;2023-01-29T00:20:41;42.50;;;24.10;;
15331;SDS011;7766;51.534;6.722;2023-01-29T00:21:42;43.13;;;23.50;;
15331;SDS011;7766;51.534;6.722;2023-01-29T00:22:43;47.43;;;25.03;;
15331;SDS011;7766;51.534;6.722;2023-01-29T00:23:44;41.33;;;21.60;;
15331;SDS011;7766;51.534;6.722;2023-01-29T00:24:45;45.22;;;22.98;;
15331;SDS011;7766;51.534;6.722;2023-01-29T00:25:46;41.63;;;21.63;;
15331;SDS011;7766;51.534;6.722;2023-01-29T00:26:47;42.13;;;23.13;;
15331;SDS011;7766;51.534;6.722;2023-01-29T00:27:49;41.30;;;23.20;;
15331;SDS011;7766;51.534;6.722;2023-01-29T00:28:50;44.70;;;22.90;;
15331;SDS011;7766;51.534;6.722;2023-01-29T00:29:50;43.10;;;22.83;;
15331;SDS011;7766;51.534;6.722;2023-01-29T00:31:12;46.20;;;23.23;;
15331;SDS011;7766;51.534;6.722;2023-01-29T00:32:13;40.95;;;22.15;;
15331;SDS011;7766;51.534;6.722;2023-01-29T00:33:14;44.73;;;22.93;;
15331;SDS011;7766;51.534;6.722;2023-01-29T00:34:14;44.20;;;21.87;;
15331;SDS011;7766;51.534;6.722;2023-01-29T00:35:15;40.30;;;22.17;;
15331;SDS011;7766;51.534;6.722;2023-01-29T00:36:18;42.17;;;22.63;;
15331;SDS011;7766;51.534;6.722;2023-01-29T00:37:19;43.63;;;21.25;;
15331;SDS011;7766;51.534;6.722;2023-01-29T00:38:20;40.50;;;21.80;;
15331;SDS011;7766;51.534;6.722;2023-01-29T00:39:21;42.03;;;22.10;;
15331;SDS011;7766;51.534;6.722;2023-01-29T00:40:24;41.42;;;21.42;;
15331;SDS011;7766;51.534;6.722;2023-01-29T00:41:26;38.17;;;22.08;;
15331;SDS011;7766;51.534;6.722;2023-01-29T00:42:46;46.22;;;22.80;;
15331;SDS011;7766;51.534;6.722;2023-01-29T00:44:06;41.63;;;21.80;;
15331;SDS011;7766;51.534;6.722;2023-01-29T00:45:25;39.83;;;21.33;;
15331;SDS011;7766;51.534;6.722;2023-01-29T00:46:26;42.70;;;21.83;;
15331;SDS011;7766;51.534;6.722;2023-01-29T00:47:27;42.57;;;22.83;;
15331;SDS011;7766;51.534;6.722;2023-01-29T00:48:34;36.60;;;20.77;;
15331;SDS011;7766;51.534;6.722;2023-01-29T00:49:35;38.92;;;21.95;;
15331;SDS011;7766;51.534;6.722;2023-01-29T00:50:36;42.47;;;22.30;;
15331;SDS011;7766;51.534;6.722;2023-01-29T00:51:37;41.23;;;22.33;;
15331;SDS011;7766;51.534;6.722;2023-01-29T00:52:38;42.58;;;21.83;;
15331;SDS011;7766;51.534;6.722;2023-01-29T00:53:40;39.72;;;21.00;;
15331;SDS011;7766;51.534;6.722;2023-01-29T00:54:41;40.33;;;22.53;;
15331;SDS011;7766;51.534;6.722;2023-01-29T00:55:43;39.67;;;20.57;;
15331;SDS011;7766;51.534;6.722;2023-01-29T00:56:44;40.63;;;23.05;;
15331;SDS011;7766;51.534;6.722;2023-01-29T00:57:45;41.63;;;22.47;;
15331;SDS011;7766;51.534;6.722;2023-01-29T00:58:46;40.43;;;22.00;;
15331;SDS011;7766;51.534;6.722;2023-01-29T00:59:47;44.37;;;23.07;;
15331;SDS011;7766;51.534;6.722;2023-01-29T01:00:47;37.77;;;21.93;;
15331;SDS011;7766;51.534;6.722;2023-01-29T01:01:48;41.20;;;22.75;;
15331;SDS011;7766;51.534;6.722;2023-01-29T01:03:08;42.75;;;21.13;;
15331;SDS011;7766;51.534;6.722;2023-01-29T01:04:10;42.22;;;22.27;;
15331;SDS011;7766;51.534;6.722;2023-01-29T01:05:12;42.58;;;22.77;;
15331;SDS011;7766;51.534;6.722;2023-01-29T01:06:16;38.55;;;21.83;;
15331;SDS011;7766;51.534;6.722;2023-01-29T01:07:17;41.20;;;21.77;;
15331;SDS011;7766;51.534;6.722;2023-01-29T01:08:18;44.40;;;23.20;;
15331;SDS011;7766;51.534;6.722;2023-01-29T01:09:38;41.10;;;22.25;;
15331;SDS011;7766;51.534;6.722;2023-01-29T01:10:59;35.50;;;19.70;;
15331;SDS011;7766;51.534;6.722;2023-01-29T01:12:00;41.35;;;21.45;;
15331;SDS011;7766;51.534;6.722;2023-01-29T01:13:05;37.53;;;21.57;;
15331;SDS011;7766;51.534;6.722;2023-01-29T01:14:06;39.65;;;21.55;;
15331;SDS011;7766;51.534;6.722;2023-01-29T01:15:07;44.40;;;23.43;;
15331;SDS011;7766;51.534;6.722;2023-01-29T01:16:11;41.17;;;22.08;;
15331;SDS011;7766;51.534;6.722;2023-01-29T01:17:13;40.95;;;22.05;;
15331;SDS011;7766;51.534;6.722;2023-01-29T01:18:14;40.65;;;21.98;;
15331;SDS011;7766;51.534;6.722;2023-01-29T01:19:15;42.60;;;22.43;;
15331;SDS011;7766;51.534;6.722;2023-01-29T01:20:16;45.80;;;23.90;;
15331;SDS011;7766;51.534;6.722;2023-01-29T01:21:17;41.77;;;22.10;;
15331;SDS011;7766;51.534;6.722;2023-01-29T01:22:18;43.87;;;23.17;;
15331;SDS011;7766;51.534;6.722;2023-01-29T01:23:19;40.00;;;22.35;;
15331;SDS011;7766;51.534;6.722;2023-01-29T01:24:20;43.07;;;23.70;;
15331;SDS011;7766;51.534;6.722;2023-01-29T01:25:24;42.47;;;22.97;;
15331;SDS011;7766;51.534;6.722;2023-01-29T01:26:25;44.67;;;23.67;;
15331;SDS011;7766;51.534;6.722;2023-01-29T01:27:26;42.90;;;22.10;;
15331;SDS011;7766;51.534;6.722;2023-01-29T01:28:27;45.20;;;23.15;;
15331;SDS011;7766;51.534;6.722;2023-01-29T01:29:28;44.70;;;23.45;;
15331;SDS011;7766;51.534;6.722;2023-01-29T01:30:29;44.83;;;24.25;;
15331;SDS011;7766;51.534;6.722;2023-01-29T01:31:31;42.70;;;23.98;;
15331;SDS011;7766;51.534;6.722;2023-01-29T01:32:32;44.20;;;23.73;;
15331;SDS011;7766;51.534;6.722;2023-01-29T01:33:33;40.70;;;23.40;;
15331;SDS011;7766;51.534;6.722;2023-01-29T01:34:33;44.07;;;23.90;;
15331;SDS011;7766;51.534;6.722;2023-01-29T01:35:34;46.65;;;24.30;;
15331;SDS011;7766;51.534;6.722;2023-01-29T01:36:37;41.78;;;23.55;;
15331;SDS011;7766;51.534;6.722;2023-01-29T01:37:38;45.30;;;24.70;;
15331;SDS011;7766;51.534;6.722;2023-01-29T01:38:39;42.70;;;24.00;;
15331;SDS011;7766;51.534;6.722;2023-01-29T01:39:43;45.13;;;23.90;;
15331;SDS011;7766;51.534;6.722;2023-01-29T01:40:47;40.13;;;22.70;;
15331;SDS011;7766;51.534;6.722;2023-01-29T01:41:48;43.33;;;23.33;;
15331;SDS011;7766;51.534;6.722;2023-01-29T01:42:53;42.33;;;23.77;;
15331;SDS011;7766;51.534;6.722;2023-01-29T01:43:56;46.58;;;23.40;;
15331;SDS011;7766;51.534;6.722;2023-01-29T01:46:00;40.30;;;22.65;;
15331;SDS011;7766;51.534;6.722;2023-01-29T01:47:00;40.37;;;21.57;;
15331;SDS011;7766;51.534;6.722;2023-01-29T01:50:17;40.40;;;22.42;;
15331;SDS011;7766;51.534;6.722;2023-01-29T01:51:19;43.35;;;23.10;;
15331;SDS011;7766;51.534;6.722;2023-01-29T01:52:21;41.38;;;22.17;;
15331;SDS011;7766;51.534;6.722;2023-01-29T01:53:24;38.28;;;21.52;;
15331;SDS011;7766;51.534;6.722;2023-01-29T01:54:26;43.47;;;24.15;;
15331;SDS011;7766;51.534;6.722;2023-01-29T01:55:29;40.63;;;22.50;;
15331;SDS011;7766;51.534;6.722;2023-01-29T01:56:33;38.55;;;22.08;;
15331;SDS011;7766;51.534;6.722;2023-01-29T01:57:40;40.80;;;21.83;;
15331;SDS011;7766;51.534;6.722;2023-01-29T01:58:44;42.70;;;22.67;;
15331;SDS011;7766;51.534;6.722;2023-01-29T01:59:59;42.90;;;23.20;;
15331;SDS011;7766;51.534;6.722;2023-01-29T02:01:09;41.95;;;22.13;;
15331;SDS011;7766;51.534;6.722;2023-01-29T02:02:11;44.28;;;22.85;;
15331;SDS011;7766;51.534;6.722;2023-01-29T02:03:32;40.92;;;22.38;;
15331;SDS011;7766;51.534;6.722;2023-01-29T02:04:54;41.35;;;21.50;;
15331;SDS011;7766;51.534;6.722;2023-01-29T02:06:13;43.33;;;22.13;;
15331;SDS011;7766;51.534;6.722;2023-01-29T02:07:33;41.58;;;20.58;;
15331;SDS011;7766;51.534;6.722;2023-01-29T02:10:18;42.78;;;23.05;;
15331;SDS011;7766;51.534;6.722;2023-01-29T02:11:20;43.28;;;23.38;;
15331;SDS011;7766;51.534;6.722;2023-01-29T02:12:21;39.55;;;22.30;;
15331;SDS011;7766;51.534;6.722;2023-01-29T02:13:22;37.85;;;21.20;;
15331;SDS011;7766;51.534;6.722;2023-01-29T02:14:23;42.17;;;23.25;;
15331;SDS011;7766;51.534;6.722;2023-01-29T02:15:24;38.55;;;21.45;;
15331;SDS011;7766;51.534;6.722;2023-01-29T02:16:25;41.07;;;22.33;;
15331;SDS011;7766;51.534;6.722;2023-01-29T02:17:26;42.17;;;22.23;;
15331;SDS011;7766;51.534;6.722;2023-01-29T02:18:27;42.17;;;22.67;;
15331;SDS011;7766;51.534;6.722;2023-01-29T02:19:47;44.53;;;23.77;;
15331;SDS011;7766;51.534;6.722;2023-01-29T02:23:53;44.33;;;22.88;;
15331;SDS011;7766;51.534;6.722;2023-01-29T02:25:11;38.17;;;21.10;;
15331;SDS011;7766;51.534;6.722;2023-01-29T02:27:05;37.53;;;20.58;;
15331;SDS011;7766;51.534;6.722;2023-01-29T02:27:56;38.95;;;20.88;;
15331;SDS011;7766;51.534;6.722;2023-01-29T02:29:05;35.40;;;20.17;;
15331;SDS011;7766;51.534;6.722;2023-01-29T02:31:39;40.47;;;21.38;;
15331;SDS011;7766;51.534;6.722;2023-01-29T02:32:41;36.78;;;20.33;;
15331;SDS011;7766;51.534;6.722;2023-01-29T02:34:04;39.13;;;20.83;;
15331;SDS011;7766;51.534;6.722;2023-01-29T02:35:16;41.20;;;21.95;;
15331;SDS011;7766;51.534;6.722;2023-01-29T02:39:01;40.17;;;21.00;;
15331;SDS011;7766;51.534;6.722;2023-01-29T02:42:33;41.58;;;21.95;;
15331;SDS011;7766;51.534;6.722;2023-01-29T02:43:46;42.33;;;21.27;;
15331;SDS011;7766;51.534;6.722;2023-01-29T02:44:50;38.47;;;20.95;;
15331;SDS011;7766;51.534;6.722;2023-01-29T02:46:46;40.63;;;20.70;;
15331;SDS011;7766;51.534;6.722;2023-01-29T02:48:44;40.83;;;21.20;;
15331;SDS011;7766;51.534;6.722;2023-01-29T02:50:05;41.42;;;21.80;;
15331;SDS011;7766;51.534;6.722;2023-01-29T02:51:18;42.17;;;22.17;;
15331;SDS011;7766;51.534;6.722;2023-01-29T02:52:29;42.53;;;21.30;;
15331;SDS011;7766;51.534;6.722;2023-01-29T02:53:45;43.10;;;22.85;;
15331;SDS011;7766;51.534;6.722;2023-01-29T02:54:51;37.42;;;20.00;;
15331;SDS011;7766;51.534;6.722;2023-01-29T02:56:00;39.97;;;20.25;;
15331;SDS011;7766;51.534;6.722;2023-01-29T02:57:25;36.58;;;20.15;;
15331;SDS011;7766;51.534;6.722;2023-01-29T02:58:30;37.70;;;20.63;;
15331;SDS011;7766;51.534;6.722;2023-01-29T03:02:33;40.15;;;21.08;;
15331;SDS011;7766;51.534;6.722;2023-01-29T03:03:46;38.08;;;20.33;;
15331;SDS011;7766;51.534;6.722;2023-01-29T03:04:53;38.40;;;20.55;;
15331;SDS011;7766;51.534;6.722;2023-01-29T03:07:25;39.92;;;21.48;;
15331;SDS011;7766;51.534;6.722;2023-01-29T03:08:45;40.78;;;20.77;;
15331;SDS011;7766;51.534;6.722;2023-01-29T03:09:49;36.30;;;20.05;;
15331;SDS011;7766;51.534;6.722;2023-01-29T03:10:52;37.72;;;20.48;;
15331;SDS011;7766;51.534;6.722;2023-01-29T03:11:56;40.20;;;20.65;;
15331;SDS011;7766;51.534;6.722;2023-01-29T03:13:00;38.70;;;21.27;;
15331;SDS011;7766;51.534;6.722;2023-01-29T03:14:07;39.22;;;21.05;;
15331;SDS011;7766;51.534;6.722;2023-01-29T03:15:17;38.13;;;20.77;;
15331;SDS011;7766;51.534;6.722;2023-01-29T03:16:38;37.63;;;20.38;;
15331;SDS011;7766;51.534;6.722;2023-01-29T03:17:44;39.17;;;20.75;;
15331;SDS011;7766;51.534;6.722;2023-01-29T03:18:48;36.13;;;19.75;;
15331;SDS011;7766;51.534;6.722;2023-01-29T03:19:49;39.78;;;20.65;;
15331;SDS011;7766;51.534;6.722;2023-01-29T03:20:52;35.27;;;18.97;;
15331;SDS011;7766;51.534;6.722;2023-01-29T03:21:57;38.10;;;20.98;;
15331;SDS011;7766;51.534;6.722;2023-01-29T03:23:00;36.65;;;20.40;;
15331;SDS011;7766;51.534;6.722;2023-01-29T03:24:01;38.72;;;20.60;;
15331;SDS011;7766;51.534;6.722;2023-01-29T03:25:23;38.92;;;21.80;;
15331;SDS011;7766;51.534;6.722;2023-01-29T03:26:44;35.17;;;20.08;;
15331;SDS011;7766;51.534;6.722;2023-01-29T03:28:03;38.42;;;19.50;;
15331;SDS011;7766;51.534;6.722;2023-01-29T03:29:24;38.58;;;20.58;;
15331;SDS011;7766;51.534;6.722;2023-01-29T03:30:49;37.78;;;19.63;;
15331;SDS011;7766;51.534;6.722;2023-01-29T03:32:10;37.70;;;20.88;;
15331;SDS011;7766;51.534;6.722;2023-01-29T03:33:11;35.28;;;19.38;;
15331;SDS011;7766;51.534;6.722;2023-01-29T03:34:15;35.10;;;19.48;;
15331;SDS011;7766;51.534;6.722;2023-01-29T03:35:24;35.63;;;19.33;;
15331;SDS011;7766;51.534;6.722;2023-01-29T03:37:54;38.08;;;20.05;;
15331;SDS011;7766;51.534;6.722;2023-01-29T03:38:55;36.17;;;19.57;;
15331;SDS011;7766;51.534;6.722;2023-01-29T03:39:57;32.75;;;19.50;;
15331;SDS011;7766;51.534;6.722;2023-01-29T03:42:18;43.30;;;20.95;;
15331;SDS011;7766;51.534;6.722;2023-01-29T03:43:39;37.70;;;19.73;;
15331;SDS011;7766;51.534;6.722;2023-01-29T03:45:49;38.13;;;19.10;;
15331;SDS011;7766;51.534;6.722;2023-01-29T03:47:07;40.65;;;19.85;;
15331;SDS011;7766;51.534;6.722;2023-01-29T03:49:29;38.97;;;19.77;;
15331;SDS011;7766;51.534;6.722;2023-01-29T03:50:36;37.38;;;19.25;;
15331;SDS011;7766;51.534;6.722;2023-01-29T03:52:45;36.85;;;18.65;;
15331;SDS011;7766;51.534;6.722;2023-01-29T03:53:57;37.10;;;19.17;;
15331;SDS011;7766;51.534;6.722;2023-01-29T03:57:43;34.22;;;19.52;;
15331;SDS011;7766;51.534;6.722;2023-01-29T03:58:59;35.78;;;19.00;;
15331;SDS011;7766;51.534;6.722;2023-01-29T04:00:05;37.20;;;20.23;;
15331;SDS011;7766;51.534;6.722;2023-01-29T04:02:34;35.35;;;19.15;;
15331;SDS011;7766;51.534;6.722;2023-01-29T04:03:36;37.78;;;19.77;;
15331;SDS011;7766;51.534;6.722;2023-01-29T04:04:39;32.70;;;19.13;;
15331;SDS011;7766;51.534;6.722;2023-01-29T04:05:46;34.33;;;19.13;;
15331;SDS011;7766;51.534;6.722;2023-01-29T04:06:49;37.45;;;19.17;;
15331;SDS011;7766;51.534;6.722;2023-01-29T04:07:53;36.33;;;19.33;;
15331;SDS011;7766;51.534;6.722;2023-01-29T04:09:04;39.17;;;20.23;;
15331;SDS011;7766;51.534;6.722;2023-01-29T04:10:08;35.47;;;18.58;;
15331;SDS011;7766;51.534;6.722;2023-01-29T04:11:11;34.95;;;18.33;;
15331;SDS011;7766;51.534;6.722;2023-01-29T04:12:14;38.80;;;20.35;;
15331;SDS011;7766;51.534;6.722;2023-01-29T04:13:17;35.22;;;19.23;;
15331;SDS011;7766;51.534;6.722;2023-01-29T04:14:19;33.20;;;19.02;;
15331;SDS011;7766;51.534;6.722;2023-01-29T04:15:20;34.38;;;19.75;;
15331;SDS011;7766;51.534;6.722;2023-01-29T04:16:30;35.53;;;19.80;;
15331;SDS011;7766;51.534;6.722;2023-01-29T04:17:39;37.80;;;20.05;;
15331;SDS011;7766;51.534;6.722;2023-01-29T04:18:43;37.95;;;20.83;;
15331;SDS011;7766;51.534;6.722;2023-01-29T04:19:44;35.42;;;20.30;;
15331;SDS011;7766;51.534;6.722;2023-01-29T04:20:45;35.57;;;19.47;;
15331;SDS011;7766;51.534;6.722;2023-01-29T04:21:46;37.72;;;21.33;;
15331;SDS011;7766;51.534;6.722;2023-01-29T04:22:49;35.80;;;19.42;;
15331;SDS011;7766;51.534;6.722;2023-01-29T04:23:50;36.78;;;20.10;;
15331;SDS011;7766;51.534;6.722;2023-01-29T04:24:51;36.37;;;19.70;;
15331;SDS011;7766;51.534;6.722;2023-01-29T04:25:54;37.50;;;20.42;;
15331;SDS011;7766;51.534;6.722;2023-01-29T04:27:10;36.80;;;19.50;;
15331;SDS011;7766;51.534;6.722;2023-01-29T04:30:45;37.80;;;19.43;;
15331;SDS011;7766;51.534;6.722;2023-01-29T04:31:56;35.53;;;19.00;;
15331;SDS011;7766;51.534;6.722;2023-01-29T04:33:10;34.85;;;20.17;;
15331;SDS011;7766;51.534;6.722;2023-01-29T04:34:20;36.60;;;19.13;;
15331;SDS011;7766;51.534;6.722;2023-01-29T04:35:31;33.78;;;19.10;;
15331;SDS011;7766;51.534;6.722;2023-01-29T04:40:14;36.00;;;19.00;;
15331;SDS011;7766;51.534;6.722;2023-01-29T04:41:24;36.15;;;19.48;;
15331;SDS011;7766;51.534;6.722;2023-01-29T04:42:30;36.13;;;19.45;;
15331;SDS011;7766;51.534;6.722;2023-01-29T04:43:38;34.92;;;18.75;;
15331;SDS011;7766;51.534;6.722;2023-01-29T04:46:09;36.60;;;19.08;;
15331;SDS011;7766;51.534;6.722;2023-01-29T04:47:19;35.90;;;18.67;;
15331;SDS011;7766;51.534;6.722;2023-01-29T04:48:23;37.03;;;19.85;;
15331;SDS011;7766;51.534;6.722;2023-01-29T04:49:44;31.95;;;19.48;;
15331;SDS011;7766;51.534;6.722;2023-01-29T04:52:14;37.17;;;19.92;;
15331;SDS011;7766;51.534;6.722;2023-01-29T04:53:17;35.75;;;19.45;;
15331;SDS011;7766;51.534;6.722;2023-01-29T04:54:33;37.40;;;20.30;;
15331;SDS011;7766;51.534;6.722;2023-01-29T04:55:43;35.95;;;19.67;;
15331;SDS011;7766;51.534;6.722;2023-01-29T04:56:56;38.70;;;19.95;;
15331;SDS011;7766;51.534;6.722;2023-01-29T04:58:07;35.05;;;19.13;;
15331;SDS011;7766;51.534;6.722;2023-01-29T04:59:12;34.78;;;19.52;;
15331;SDS011;7766;51.534;6.722;2023-01-29T05:00:25;35.58;;;19.50;;
15331;SDS011;7766;51.534;6.722;2023-01-29T05:01:27;35.10;;;19.23;;
15331;SDS011;7766;51.534;6.722;2023-01-29T05:02:32;35.72;;;19.20;;
15331;SDS011;7766;51.534;6.722;2023-01-29T05:03:34;34.08;;;19.15;;
15331;SDS011;7766;51.534;6.722;2023-01-29T05:04:37;33.80;;;20.15;;
15331;SDS011;7766;51.534;6.722;2023-01-29T05:05:40;33.85;;;19.48;;
15331;SDS011;7766;51.534;6.722;2023-01-29T05:06:42;37.33;;;20.40;;
15331;SDS011;7766;51.534;6.722;2023-01-29T05:07:46;36.90;;;20.30;;
15331;SDS011;7766;51.534;6.722;2023-01-29T05:08:47;39.97;;;20.05;;
15331;SDS011;7766;51.534;6.722;2023-01-29T05:09:49;34.92;;;19.95;;
15331;SDS011;7766;51.534;6.722;2023-01-29T05:10:51;39.00;;;21.13;;
15331;SDS011;7766;51.534;6.722;2023-01-29T05:11:52;34.30;;;20.15;;
15331;SDS011;7766;51.534;6.722;2023-01-29T05:12:59;38.53;;;21.00;;
15331;SDS011;7766;51.534;6.722;2023-01-29T05:14:01;39.45;;;20.63;;
15331;SDS011;7766;51.534;6.722;2023-01-29T05:15:08;40.40;;;20.30;;
15331;SDS011;7766;51.534;6.722;2023-01-29T05:16:13;36.72;;;21.38;;
15331;SDS011;7766;51.534;6.722;2023-01-29T05:17:17;40.92;;;20.83;;
15331;SDS011;7766;51.534;6.722;2023-01-29T05:18:19;35.42;;;19.38;;
15331;SDS011;7766;51.534;6.722;2023-01-29T05:19:20;32.27;;;19.13;;
15331;SDS011;7766;51.534;6.722;2023-01-29T05:20:21;39.83;;;20.23;;
15331;SDS011;7766;51.534;6.722;2023-01-29T05:21:22;36.13;;;19.30;;
15331;SDS011;7766;51.534;6.722;2023-01-29T05:22:23;35.50;;;20.40;;
15331;SDS011;7766;51.534;6.722;2023-01-29T05:23:25;37.65;;;20.30;;
15331;SDS011;7766;51.534;6.722;2023-01-29T05:24:26;38.10;;;20.27;;
15331;SDS011;7766;51.534;6.722;2023-01-29T05:25:28;38.05;;;20.55;;
15331;SDS011;7766;51.534;6.722;2023-01-29T05:26:30;34.90;;;19.67;;
15331;SDS011;7766;51.534;6.722;2023-01-29T05:27:49;37.85;;;19.75;;
15331;SDS011;7766;51.534;6.722;2023-01-29T05:29:09;40.00;;;21.10;;
15331;SDS011;7766;51.534;6.722;2023-01-29T05:30:11;38.13;;;20.48;;
15331;SDS011;7766;51.534;6.722;2023-01-29T05:31:12;39.53;;;20.55;;
15331;SDS011;7766;51.534;6.722;2023-01-29T05:32:12;40.23;;;20.10;;
15331;SDS011;7766;51.534;6.722;2023-01-29T05:34:21;37.08;;;20.83;;
15331;SDS011;7766;51.534;6.722;2023-01-29T05:35:22;39.05;;;20.60;;
15331;SDS011;7766;51.534;6.722;2023-01-29T05:36:23;38.13;;;21.17;;
15331;SDS011;7766;51.534;6.722;2023-01-29T05:37:25;36.28;;;20.42;;
15331;SDS011;7766;51.534;6.722;2023-01-29T05:38:26;38.63;;;20.13;;
15331;SDS011;7766;51.534;6.722;2023-01-29T05:39:27;39.63;;;20.55;;
15331;SDS011;7766;51.534;6.722;2023-01-29T05:40:28;36.20;;;20.55;;
15331;SDS011;7766;51.534;6.722;2023-01-29T05:41:29;39.17;;;19.63;;
15331;SDS011;7766;51.534;6.722;2023-01-29T05:42:31;39.25;;;21.42;;
15331;SDS011;7766;51.534;6.722;2023-01-29T05:43:32;39.85;;;19.85;;
15331;SDS011;7766;51.534;6.722;2023-01-29T05:44:33;38.13;;;20.63;;
15331;SDS011;7766;51.534;6.722;2023-01-29T05:45:33;38.33;;;20.13;;
15331;SDS011;7766;51.534;6.722;2023-01-29T05:46:34;41.37;;;22.37;;
15331;SDS011;7766;51.534;6.722;2023-01-29T05:47:35;41.03;;;21.50;;
15331;SDS011;7766;51.534;6.722;2023-01-29T05:48:36;42.47;;;22.40;;
15331;SDS011;7766;51.534;6.722;2023-01-29T05:49:37;39.83;;;19.63;;
15331;SDS011;7766;51.534;6.722;2023-01-29T05:50:38;38.20;;;20.50;;
15331;SDS011;7766;51.534;6.722;2023-01-29T05:51:39;40.53;;;21.00;;
15331;SDS011;7766;51.534;6.722;2023-01-29T05:52:40;39.27;;;21.20;;
15331;SDS011;7766;51.534;6.722;2023-01-29T05:53:41;37.83;;;20.85;;
15331;SDS011;7766;51.534;6.722;2023-01-29T05:54:41;40.03;;;21.30;;
15331;SDS011;7766;51.534;6.722;2023-01-29T05:55:43;35.97;;;19.73;;
15331;SDS011;7766;51.534;6.722;2023-01-29T05:56:44;41.05;;;20.60;;
15331;SDS011;7766;51.534;6.722;2023-01-29T05:57:45;35.23;;;19.87;;
15331;SDS011;7766;51.534;6.722;2023-01-29T05:58:46;40.23;;;21.40;;
15331;SDS011;7766;51.534;6.722;2023-01-29T05:59:47;38.43;;;20.83;;
15331;SDS011;7766;51.534;6.722;2023-01-29T06:00:48;36.20;;;21.10;;
15331;SDS011;7766;51.534;6.722;2023-01-29T06:01:48;38.27;;;20.33;;
15331;SDS011;7766;51.534;6.722;2023-01-29T06:02:49;40.73;;;21.53;;
15331;SDS011;7766;51.534;6.722;2023-01-29T06:03:50;38.67;;;21.37;;
15331;SDS011;7766;51.534;6.722;2023-01-29T06:04:51;39.22;;;20.67;;
15331;SDS011;7766;51.534;6.722;2023-01-29T06:05:52;38.13;;;20.60;;
15331;SDS011;7766;51.534;6.722;2023-01-29T06:06:53;36.93;;;20.23;;
15331;SDS011;7766;51.534;6.722;2023-01-29T06:07:53;35.67;;;21.53;;
15331;SDS011;7766;51.534;6.722;2023-01-29T06:08:54;36.70;;;19.90;;
15331;SDS011;7766;51.534;6.722;2023-01-29T06:09:55;38.38;;;20.67;;
15331;SDS011;7766;51.534;6.722;2023-01-29T06:10:56;37.67;;;21.30;;
15331;SDS011;7766;51.534;6.722;2023-01-29T06:11:57;40.73;;;20.83;;
15331;SDS011;7766;51.534;6.722;2023-01-29T06:12:58;38.67;;;20.30;;
15331;SDS011;7766;51.534;6.722;2023-01-29T06:13:59;38.80;;;20.23;;
15331;SDS011;7766;51.534;6.722;2023-01-29T06:15:00;35.30;;;19.53;;
15331;SDS011;7766;51.534;6.722;2023-01-29T06:16:05;42.83;;;22.13;;
15331;SDS011;7766;51.534;6.722;2023-01-29T06:17:06;39.60;;;22.33;;
15331;SDS011;7766;51.534;6.722;2023-01-29T06:18:07;36.60;;;20.57;;
15331;SDS011;7766;51.534;6.722;2023-01-29T06:19:08;38.27;;;20.90;;
15331;SDS011;7766;51.534;6.722;2023-01-29T06:20:08;40.43;;;21.20;;
15331;SDS011;7766;51.534;6.722;2023-01-29T06:21:10;36.33;;;19.67;;
15331;SDS011;7766;51.534;6.722;2023-01-29T06:22:11;40.75;;;20.70;;
15331;SDS011;7766;51.534;6.722;2023-01-29T06:23:12;41.50;;;22.17;;
15331;SDS011;7766;51.534;6.722;2023-01-29T06:24:13;39.97;;;21.93;;
15331;SDS011;7766;51.534;6.722;2023-01-29T06:25:14;38.60;;;21.47;;
15331;SDS011;7766;51.534;6.722;2023-01-29T06:26:14;38.00;;;20.67;;
15331;SDS011;7766;51.534;6.722;2023-01-29T06:27:15;38.57;;;20.87;;
15331;SDS011;7766;51.534;6.722;2023-01-29T06:28:16;39.93;;;20.90;;
15331;SDS011;7766;51.534;6.722;2023-01-29T06:29:17;38.77;;;21.90;;
15331;SDS011;7766;51.534;6.722;2023-01-29T06:30:18;39.87;;;21.27;;
15331;SDS011;7766;51.534;6.722;2023-01-29T06:31:18;38.83;;;21.40;;
15331;SDS011;7766;51.534;6.722;2023-01-29T06:32:19;39.50;;;20.77;;
15331;SDS011;7766;51.534;6.722;2023-01-29T06:33:20;37.33;;;20.00;;
15331;SDS011;7766;51.534;6.722;2023-01-29T06:34:21;40.93;;;22.17;;
15331;SDS011;7766;51.534;6.722;2023-01-29T06:35:22;39.93;;;21.43;;
15331;SDS011;7766;51.534;6.722;2023-01-29T06:36:23;37.43;;;20.53;;
15331;SDS011;7766;51.534;6.722;2023-01-29T06:37:24;38.87;;;20.03;;
15331;SDS011;7766;51.534;6.722;2023-01-29T06:38:25;38.00;;;20.33;;
15331;SDS011;7766;51.534;6.722;2023-01-29T06:39:26;36.50;;;20.35;;
15331;SDS011;7766;51.534;6.722;2023-01-29T06:40:27;39.20;;;21.10;;
15331;SDS011;7766;51.534;6.722;2023-01-29T06:41:28;39.77;;;19.97;;
15331;SDS011;7766;51.534;6.722;2023-01-29T06:42:29;40.63;;;21.48;;
15331;SDS011;7766;51.534;6.722;2023-01-29T06:43:30;39.57;;;20.10;;
15331;SDS011;7766;51.534;6.722;2023-01-29T06:44:30;39.90;;;21.07;;
15331;SDS011;7766;51.534;6.722;2023-01-29T06:45:31;39.30;;;21.30;;
15331;SDS011;7766;51.534;6.722;2023-01-29T06:46:32;39.73;;;21.33;;
15331;SDS011;7766;51.534;6.722;2023-01-29T06:47:33;37.63;;;21.73;;
15331;SDS011;7766;51.534;6.722;2023-01-29T06:48:34;40.67;;;20.57;;
15331;SDS011;7766;51.534;6.722;2023-01-29T06:49:35;42.35;;;21.38;;
15331;SDS011;7766;51.534;6.722;2023-01-29T06:50:36;43.87;;;20.80;;
15331;SDS011;7766;51.534;6.722;2023-01-29T06:51:37;38.47;;;21.87;;
15331;SDS011;7766;51.534;6.722;2023-01-29T06:52:38;42.80;;;22.43;;
15331;SDS011;7766;51.534;6.722;2023-01-29T06:53:39;37.53;;;21.47;;
15331;SDS011;7766;51.534;6.722;2023-01-29T06:54:40;39.50;;;20.15;;
15331;SDS011;7766;51.534;6.722;2023-01-29T06:55:41;41.63;;;22.13;;
15331;SDS011;7766;51.534;6.722;2023-01-29T06:56:42;43.07;;;22.80;;
15331;SDS011;7766;51.534;6.722;2023-01-29T06:57:42;41.77;;;21.90;;
15331;SDS011;7766;51.534;6.722;2023-01-29T06:58:43;41.07;;;22.07;;
15331;SDS011;7766;51.534;6.722;2023-01-29T06:59:45;39.90;;;21.35;;
15331;SDS011;7766;51.534;6.722;2023-01-29T07:00:45;36.73;;;19.37;;
15331;SDS011;7766;51.534;6.722;2023-01-29T07:01:46;38.70;;;21.52;;
15331;SDS011;7766;51.534;6.722;2023-01-29T07:02:48;41.20;;;21.40;;